createdAt,value
2022-10-17T00:01:24.487Z,13.57
2022-10-17T00:04:26.844Z,13.49
2022-10-17T00:07:30.820Z,13.49
2022-10-17T00:10:33.421Z,13.39
2022-10-17T00:13:36.226Z,13.40
2022-10-17T00:16:38.558Z,13.42
2022-10-17T00:19:40.975Z,13.35
2022-10-17T00:22:43.321Z,13.33
2022-10-17T00:25:45.708Z,13.30
2022-10-17T00:28:49.430Z,13.27
2022-10-17T00:31:56.073Z,13.28
2022-10-17T00:34:58.790Z,13.33
2022-10-17T00:38:01.059Z,13.24
2022-10-17T00:41:04.168Z,13.21
2022-10-17T00:44:27.791Z,13.16
2022-10-17T00:47:31.699Z,13.18
2022-10-17T00:50:34.925Z,13.18
2022-10-17T00:53:39.437Z,13.09
2022-10-17T00:56:41.970Z,13.08
2022-10-17T00:59:47.749Z,13.09
2022-10-17T01:02:50.210Z,12.97
2022-10-17T01:05:52.745Z,13.06
2022-10-17T01:08:55.330Z,12.95
2022-10-17T01:12:16.517Z,13.00
2022-10-17T01:15:37.486Z,12.92
2022-10-17T01:18:46.269Z,12.90
2022-10-17T01:22:14.413Z,12.86
2022-10-17T01:25:36.294Z,12.78
2022-10-17T01:29:26.310Z,12.87
2022-10-17T01:32:37.362Z,12.87
2022-10-17T01:35:45.905Z,12.84
2022-10-17T01:38:53.901Z,12.79
2022-10-17T01:42:04.940Z,12.78
2022-10-17T01:45:12.800Z,12.80
2022-10-17T01:48:18.755Z,12.81
2022-10-17T01:51:26.976Z,12.77
2022-10-17T01:54:55.837Z,12.83
2022-10-17T01:58:05.721Z,12.82
2022-10-17T02:01:09.349Z,12.87
2022-10-17T02:04:14.039Z,12.83
2022-10-17T02:07:18.612Z,12.90
2022-10-17T02:10:39.788Z,12.96
2022-10-17T02:14:32.959Z,12.91
2022-10-17T02:17:49.278Z,12.94
2022-10-17T02:21:11.702Z,12.93
2022-10-17T02:24:57.887Z,12.94
2022-10-17T02:28:06.401Z,12.90
2022-10-17T02:31:26.397Z,12.77
2022-10-17T02:34:33.828Z,12.75
2022-10-17T02:37:36.706Z,12.74
2022-10-17T02:40:40.993Z,12.70
2022-10-17T02:43:45.595Z,12.70
2022-10-17T02:46:53.276Z,12.65
2022-10-17T02:49:58.580Z,12.72
2022-10-17T02:53:09.577Z,12.63
2022-10-17T02:56:18.100Z,12.53
2022-10-17T02:59:22.270Z,12.53
2022-10-17T03:02:24.868Z,12.45
2022-10-17T03:05:29.141Z,12.50
2022-10-17T03:08:31.514Z,12.42
2022-10-17T03:11:35.656Z,12.40
2022-10-17T03:14:37.987Z,12.36
2022-10-17T03:17:40.381Z,12.34
2022-10-17T03:20:43.966Z,12.35
2022-10-17T03:23:46.448Z,12.27
2022-10-17T03:26:50.165Z,12.27
2022-10-17T03:29:52.478Z,12.18
2022-10-17T03:32:57.955Z,12.19
2022-10-17T03:36:00.296Z,12.21
2022-10-17T03:39:02.728Z,12.41
2022-10-17T03:42:05.033Z,12.61
2022-10-17T03:45:07.913Z,12.69
2022-10-17T03:48:11.115Z,12.84
2022-10-17T03:51:13.735Z,12.91
2022-10-17T03:54:21.040Z,12.99
2022-10-17T03:57:23.549Z,13.05
2022-10-17T04:00:25.992Z,13.12
2022-10-17T04:03:32.441Z,13.14
2022-10-17T04:06:35.493Z,13.10
2022-10-17T04:09:37.806Z,12.99
2022-10-17T04:12:49.308Z,12.92
2022-10-17T04:15:59.730Z,12.72
2022-10-17T04:19:02.325Z,12.50
2022-10-17T04:22:09.934Z,12.32
2022-10-17T04:25:14.694Z,12.37
2022-10-17T04:28:20.493Z,12.25
2022-10-17T04:31:22.914Z,12.17
2022-10-17T04:34:42.857Z,12.12
2022-10-17T04:37:45.127Z,11.97
2022-10-17T04:40:52.953Z,11.95
2022-10-17T04:43:55.430Z,11.88
2022-10-17T04:46:58.426Z,11.85
2022-10-17T04:50:01.438Z,11.83
2022-10-17T04:53:05.464Z,11.84
2022-10-17T04:56:19.553Z,11.84
2022-10-17T04:59:21.909Z,11.79
2022-10-17T05:02:30.962Z,11.76
2022-10-17T05:05:34.546Z,11.84
2022-10-17T05:08:38.692Z,11.83
2022-10-17T05:11:42.544Z,11.77
2022-10-17T05:14:45.677Z,11.81
2022-10-17T05:17:48.901Z,11.84
2022-10-17T05:20:52.234Z,11.80
2022-10-17T05:23:55.482Z,11.96
2022-10-17T05:26:58.201Z,11.98
2022-10-17T05:30:00.557Z,11.96
2022-10-17T05:33:05.873Z,12.07
2022-10-17T05:36:08.438Z,12.07
2022-10-17T05:39:14.111Z,12.27
2022-10-17T05:42:17.454Z,12.29
2022-10-17T05:45:21.154Z,12.41
2022-10-17T05:48:24.173Z,12.48
2022-10-17T05:51:26.764Z,12.56
2022-10-17T05:54:31.643Z,12.51
2022-10-17T05:57:34.021Z,12.63
2022-10-17T06:00:37.491Z,12.77
2022-10-17T06:03:40.604Z,12.92
2022-10-17T06:06:42.934Z,13.07
2022-10-17T06:12:52.766Z,13.21
2022-10-17T06:15:56.375Z,13.26
2022-10-17T06:18:59.234Z,13.35
2022-10-17T06:22:02.633Z,13.46
2022-10-17T06:25:05.839Z,13.56
2022-10-17T06:28:08.248Z,13.64
2022-10-17T06:31:13.485Z,13.71
2022-10-17T06:34:16.711Z,13.86
2022-10-17T06:37:19.650Z,13.84
2022-10-17T06:40:22.874Z,13.98
2022-10-17T06:43:28.003Z,14.29
2022-10-17T06:46:48.876Z,14.43
2022-10-17T06:49:52.921Z,14.68
2022-10-17T06:53:07.197Z,15.02
2022-10-17T06:56:29.812Z,15.37
2022-10-17T06:59:43.938Z,15.86
2022-10-17T07:02:51.895Z,16.16
2022-10-17T07:05:55.495Z,16.55
2022-10-17T07:08:58.961Z,16.99
2022-10-17T07:12:12.919Z,17.38
2022-10-17T07:15:19.458Z,17.68
2022-10-17T07:18:27.022Z,17.82
2022-10-17T07:21:38.986Z,18.25
2022-10-17T07:25:15.237Z,18.32
2022-10-17T07:28:23.507Z,18.59
2022-10-17T07:31:27.129Z,18.77
2022-10-17T07:34:31.392Z,18.33
2022-10-17T07:37:34.482Z,18.59
2022-10-17T07:40:37.567Z,18.71
2022-10-17T07:43:41.824Z,18.99
2022-10-17T07:46:45.465Z,18.98
2022-10-17T07:49:47.920Z,18.96
2022-10-17T07:52:50.662Z,19.08
2022-10-17T07:55:53.064Z,19.13
2022-10-17T08:01:58.044Z,19.25
2022-10-17T08:05:00.359Z,19.44
2022-10-17T08:08:02.684Z,19.52
2022-10-17T08:11:07.913Z,19.50
2022-10-17T08:14:14.041Z,19.38
2022-10-17T08:17:16.289Z,19.49
2022-10-17T08:20:18.697Z,19.68
2022-10-17T08:23:21.078Z,19.85
2022-10-17T08:26:23.381Z,19.88
2022-10-17T08:29:25.689Z,19.77
2022-10-17T08:32:29.790Z,19.83
2022-10-17T08:35:32.183Z,20.13
2022-10-17T08:38:36.390Z,20.31
2022-10-17T08:42:07.195Z,20.42
2022-10-17T08:45:32.730Z,20.61
2022-10-17T08:48:42.747Z,20.84
2022-10-17T08:51:56.429Z,20.77
2022-10-17T08:54:59.694Z,20.83
2022-10-17T08:58:02.007Z,21.02
2022-10-17T09:01:06.900Z,21.15
2022-10-17T09:04:14.508Z,21.46
2022-10-17T09:07:27.964Z,21.35
2022-10-17T09:11:01.861Z,21.53
2022-10-17T09:14:32.107Z,21.86
2022-10-17T09:17:53.644Z,21.93
2022-10-17T09:21:11.250Z,22.01
2022-10-17T09:24:27.041Z,22.04
2022-10-17T09:28:06.813Z,22.16
2022-10-17T09:31:35.713Z,22.47
2022-10-17T09:34:38.055Z,22.61
2022-10-17T09:37:41.127Z,22.63
2022-10-17T09:40:44.682Z,22.53
2022-10-17T09:43:47.968Z,22.38
2022-10-17T09:47:11.775Z,22.73
2022-10-17T09:50:28.368Z,22.91
2022-10-17T09:53:35.034Z,23.04
2022-10-17T09:57:06.555Z,23.22
2022-10-17T10:00:21.642Z,23.53
2022-10-17T10:03:26.246Z,23.60
2022-10-17T10:06:28.573Z,23.69
2022-10-17T10:09:34.799Z,23.73
2022-10-17T10:12:39.640Z,23.69
2022-10-17T10:15:47.260Z,23.48
2022-10-17T10:18:51.045Z,23.09
2022-10-17T10:21:59.096Z,23.09
2022-10-17T10:25:08.669Z,23.38
2022-10-17T10:28:17.722Z,23.17
2022-10-17T10:31:36.078Z,23.11
2022-10-17T10:34:49.589Z,23.08
2022-10-17T10:37:56.989Z,23.32
2022-10-17T10:41:05.437Z,23.62
2022-10-17T10:44:14.716Z,23.80
2022-10-17T10:47:26.925Z,24.04
2022-10-17T10:50:30.485Z,23.89
2022-10-17T10:53:53.550Z,23.89
2022-10-17T10:57:00.948Z,23.91
2022-10-17T11:00:15.579Z,24.00
2022-10-17T11:03:24.011Z,24.19
2022-10-17T11:06:28.862Z,24.22
2022-10-17T11:09:41.435Z,24.14
2022-10-17T11:12:46.206Z,24.36
2022-10-17T11:16:00.657Z,24.48
2022-10-17T11:19:25.965Z,24.56
2022-10-17T11:22:32.529Z,24.47
2022-10-17T11:25:39.088Z,24.34
2022-10-17T11:28:41.441Z,24.14
2022-10-17T11:31:48.615Z,23.96
2022-10-17T11:35:01.132Z,23.93
2022-10-17T11:38:43.058Z,23.89
2022-10-17T11:41:48.048Z,24.05
2022-10-17T11:44:55.501Z,24.01
2022-10-17T11:48:05.197Z,23.95
2022-10-17T11:54:39.287Z,24.12
2022-10-17T11:57:46.694Z,23.80
2022-10-17T12:01:12.544Z,24.13
2022-10-17T12:04:56.350Z,24.19
2022-10-17T12:08:09.258Z,23.98
2022-10-17T12:11:17.796Z,23.93
2022-10-17T12:14:42.810Z,24.01
2022-10-17T12:17:46.676Z,24.00
2022-10-17T12:20:59.795Z,24.14
2022-10-17T12:24:02.095Z,24.13
2022-10-17T12:27:33.770Z,24.03
2022-10-17T12:30:36.738Z,23.97
2022-10-17T12:33:48.872Z,23.79
2022-10-17T12:36:51.248Z,23.74
2022-10-17T12:40:00.147Z,23.84
2022-10-17T12:43:15.070Z,23.82
2022-10-17T12:46:44.853Z,23.75
2022-10-17T12:49:54.413Z,23.70
2022-10-17T12:53:04.948Z,23.63
2022-10-17T12:56:07.575Z,23.47
2022-10-17T12:59:27.547Z,23.38
2022-10-17T13:02:30.985Z,23.29
2022-10-17T13:05:36.706Z,23.41
2022-10-17T13:08:44.853Z,23.21
2022-10-17T13:11:49.636Z,23.14
2022-10-17T13:14:53.205Z,23.16
2022-10-17T13:17:57.754Z,23.06
2022-10-17T13:21:01.919Z,23.07
2022-10-17T13:24:44.191Z,23.09
2022-10-17T13:27:47.082Z,23.02
2022-10-17T13:30:49.877Z,22.98
2022-10-17T13:33:56.687Z,22.88
2022-10-17T13:37:02.558Z,22.95
2022-10-17T13:40:17.580Z,22.76
2022-10-17T13:43:27.477Z,22.72
2022-10-17T13:46:38.080Z,22.72
2022-10-17T13:49:42.547Z,22.77
2022-10-17T13:52:44.858Z,22.84
2022-10-17T13:56:09.477Z,22.80
2022-10-17T13:59:26.168Z,22.70
2022-10-17T14:02:35.410Z,22.52
2022-10-17T14:06:09.890Z,22.45
2022-10-17T14:09:22.690Z,22.18
2022-10-17T14:12:25.928Z,22.21
2022-10-17T14:15:30.550Z,22.06
2022-10-17T14:18:36.664Z,21.87
2022-10-17T14:21:44.435Z,21.83
2022-10-17T14:24:47.477Z,21.71
2022-10-17T14:28:04.157Z,21.60
2022-10-17T14:31:15.554Z,21.50
2022-10-17T14:34:24.468Z,21.46
2022-10-17T14:37:47.789Z,21.37
2022-10-17T14:41:15.298Z,21.35
2022-10-17T14:44:30.179Z,21.20
2022-10-17T14:47:43.662Z,21.27
2022-10-17T14:51:15.525Z,21.27
2022-10-17T14:54:22.733Z,21.23
2022-10-17T14:57:34.504Z,21.18
2022-10-17T15:00:36.770Z,21.07
2022-10-17T15:03:39.090Z,21.02
2022-10-17T15:06:41.816Z,21.02
2022-10-17T15:09:45.142Z,20.95
2022-10-17T15:12:56.202Z,21.03
2022-10-17T15:16:01.303Z,20.98
2022-10-17T15:19:03.530Z,20.86
2022-10-17T15:22:05.796Z,20.77
2022-10-17T15:25:08.553Z,20.75
2022-10-17T15:28:13.236Z,20.69
2022-10-17T15:31:18.709Z,20.67
2022-10-17T15:34:20.961Z,20.59
2022-10-17T15:37:25.070Z,20.56
2022-10-17T15:40:29.818Z,20.52
2022-10-17T15:43:32.030Z,20.42
2022-10-17T15:46:35.351Z,20.35
2022-10-17T15:49:37.659Z,20.37
2022-10-17T15:52:41.334Z,20.27
2022-10-17T15:55:43.622Z,20.14
2022-10-17T15:58:45.909Z,19.90
2022-10-17T16:01:50.829Z,19.79
2022-10-17T16:04:53.572Z,19.81
2022-10-17T16:07:57.564Z,19.79
2022-10-17T16:10:59.853Z,19.56
2022-10-17T16:14:05.590Z,19.43
2022-10-17T16:17:12.763Z,19.32
2022-10-17T16:20:15.490Z,19.16
2022-10-17T16:23:17.910Z,18.96
2022-10-17T16:26:20.466Z,18.78
2022-10-17T16:29:22.759Z,18.58
2022-10-17T16:32:25.107Z,18.46
2022-10-17T16:35:33.134Z,18.42
2022-10-17T16:38:38.954Z,18.29
2022-10-17T16:41:41.274Z,18.26
2022-10-17T16:44:43.588Z,18.11
2022-10-17T16:47:46.401Z,18.06
2022-10-17T16:50:48.675Z,17.96
2022-10-17T16:53:52.897Z,17.92
2022-10-17T16:56:57.718Z,17.98
2022-10-17T17:00:00.092Z,17.97
2022-10-17T17:03:02.365Z,17.90
2022-10-17T17:06:06.644Z,17.78
2022-10-17T17:09:09.465Z,17.77
2022-10-17T17:12:11.796Z,17.84
2022-10-17T17:15:14.224Z,17.83
2022-10-17T17:18:16.511Z,17.79
2022-10-17T17:21:18.778Z,17.71
2022-10-17T17:24:21.663Z,17.57
2022-10-17T17:27:25.194Z,17.52
2022-10-17T17:30:27.578Z,17.34
2022-10-17T17:33:30.301Z,17.41
2022-10-17T17:36:35.073Z,17.39
2022-10-17T17:39:37.488Z,17.20
2022-10-17T17:42:39.775Z,17.19
2022-10-17T17:45:42.105Z,17.11
2022-10-17T17:48:45.712Z,17.15
2022-10-17T17:51:48.051Z,17.10
2022-10-17T17:54:50.342Z,16.99
2022-10-17T17:57:52.546Z,17.04
2022-10-17T18:00:54.963Z,17.01
2022-10-17T18:04:01.567Z,16.99
2022-10-17T18:07:03.808Z,17.01
2022-10-17T18:10:06.919Z,16.96
2022-10-17T18:13:09.235Z,17.01
2022-10-17T18:16:13.416Z,17.07
2022-10-17T18:19:15.717Z,16.98
2022-10-17T18:22:18.035Z,16.95
2022-10-17T18:25:20.311Z,16.96
2022-10-17T18:28:23.198Z,17.03
2022-10-17T18:31:28.941Z,16.94
2022-10-17T18:34:31.216Z,16.98
2022-10-17T18:37:33.556Z,16.91
2022-10-17T18:40:36.034Z,16.84
2022-10-17T18:43:40.026Z,16.75
2022-10-17T18:46:42.847Z,16.60
2022-10-17T18:49:45.252Z,16.56
2022-10-17T18:52:48.474Z,16.66
2022-10-17T18:55:51.326Z,16.56
2022-10-17T18:58:54.043Z,16.62
2022-10-17T19:01:56.343Z,16.57
2022-10-17T19:04:58.772Z,16.47
2022-10-17T19:08:01.029Z,16.42
2022-10-17T19:11:18.062Z,16.38
2022-10-17T19:14:20.382Z,16.32
2022-10-17T19:17:22.617Z,16.30
2022-10-17T19:20:24.902Z,16.29
2022-10-17T19:23:27.209Z,16.23
2022-10-17T19:26:32.348Z,16.20
2022-10-17T19:29:34.586Z,16.18
2022-10-17T19:32:37.681Z,16.11
2022-10-17T19:35:41.379Z,16.05
2022-10-17T19:38:43.650Z,16.02
2022-10-17T19:41:47.477Z,16.07
2022-10-17T19:44:49.757Z,15.99
2022-10-17T19:47:52.024Z,15.91
2022-10-17T19:50:54.387Z,15.80
2022-10-17T19:54:00.372Z,15.83
2022-10-17T19:57:06.774Z,15.73
2022-10-17T20:00:12.633Z,15.77
2022-10-17T20:03:14.891Z,15.84
2022-10-17T20:06:19.111Z,15.85
2022-10-17T20:09:21.990Z,15.95
2022-10-17T20:12:24.321Z,15.99
2022-10-17T20:15:26.603Z,16.05
2022-10-17T20:18:29.144Z,16.06
2022-10-17T20:21:39.510Z,16.10
2022-10-17T20:24:41.820Z,16.10
2022-10-17T20:27:44.077Z,16.14
2022-10-17T20:30:46.542Z,16.18
2022-10-17T20:33:48.936Z,16.20
2022-10-17T20:36:51.433Z,16.19
2022-10-17T20:40:16.604Z,16.27
2022-10-17T20:43:16.027Z,16.22
2022-10-17T20:46:34.948Z,16.27
2022-10-17T20:49:38.464Z,16.18
2022-10-17T20:52:40.746Z,16.10
2022-10-17T20:55:43.039Z,16.10
2022-10-17T20:58:45.315Z,16.03
2022-10-17T21:01:47.991Z,16.04
2022-10-17T21:04:50.271Z,15.97
2022-10-17T21:07:52.561Z,15.87
2022-10-17T21:10:54.837Z,15.85
2022-10-17T21:13:59.582Z,15.75
2022-10-17T21:17:05.067Z,15.55
2022-10-17T21:20:08.241Z,15.57
2022-10-17T21:23:10.503Z,15.51
2022-10-17T21:26:13.043Z,15.54
2022-10-17T21:29:15.427Z,15.37
2022-10-17T21:32:31.908Z,15.28
2022-10-17T21:35:40.502Z,15.19
2022-10-17T21:38:44.252Z,15.13
2022-10-17T21:41:46.557Z,15.06
2022-10-17T21:44:49.560Z,14.93
2022-10-17T21:48:11.733Z,14.93
2022-10-17T21:51:16.134Z,14.81
2022-10-17T21:54:19.768Z,14.74
2022-10-17T21:57:22.048Z,14.65
2022-10-17T22:00:24.333Z,14.66
2022-10-17T22:03:26.615Z,14.59
2022-10-17T22:06:39.781Z,14.59
2022-10-17T22:09:43.003Z,14.52
2022-10-17T22:12:45.248Z,14.43
2022-10-17T22:15:47.478Z,14.34
2022-10-17T22:18:50.146Z,14.18
2022-10-17T22:21:53.219Z,14.21
2022-10-17T22:24:55.626Z,14.09
2022-10-17T22:27:57.903Z,14.10
2022-10-17T22:31:00.502Z,14.16
2022-10-17T22:34:05.119Z,14.11
2022-10-17T22:37:07.943Z,14.08
2022-10-17T22:40:10.797Z,13.96
2022-10-17T22:43:13.607Z,13.94
2022-10-17T22:46:17.027Z,13.99
2022-10-17T22:49:19.263Z,13.90
2022-10-17T22:52:21.560Z,13.93
2022-10-17T22:55:23.836Z,13.93
2022-10-17T22:58:26.998Z,13.95
2022-10-17T23:01:29.302Z,13.88
2022-10-17T23:04:31.705Z,13.78
2022-10-17T23:07:34.281Z,13.74
2022-10-17T23:10:36.599Z,13.68
2022-10-17T23:13:40.845Z,13.59
2022-10-17T23:16:43.167Z,13.59
2022-10-17T23:19:45.533Z,13.48
2022-10-17T23:22:47.925Z,13.46
2022-10-17T23:25:50.607Z,13.52
2022-10-17T23:28:54.588Z,13.45
2022-10-17T23:31:56.950Z,13.42
2022-10-17T23:34:59.262Z,13.39
2022-10-17T23:38:01.580Z,13.33
2022-10-17T23:41:04.020Z,13.32
2022-10-17T23:44:06.806Z,13.39
2022-10-17T23:47:09.073Z,13.37
2022-10-17T23:50:11.447Z,13.44
2022-10-17T23:53:13.780Z,13.34
2022-10-17T23:56:16.176Z,13.30
2022-10-17T23:59:18.380Z,13.22
